Time;durP1;ratioP1;P1;durP2;ratioP2;P2;SDS_P1;SDS_P2;PMS_P1;PMS_P2;Temp;Humidity;BMP_temperature;BMP_pressure;BME280_temperature;BME280_humidity;BME280_pressure;Samples;Min_cycle;Max_cycle;Signal;HPM_P1;HPM_P2
2021/12/06 00:00:15;;;;;;;13.83;4.60;;;;;;;;;;5059606;28;20044;-73
2021/12/06 00:02:41;;;;;;;23.27;4.95;;;;;;;;;;5043078;28;20315;-76
2021/12/06 00:05:08;;;;;;;16.08;4.68;;;;;;;;;;5050198;28;20029;-75
2021/12/06 00:07:34;;;;;;;13.70;4.78;;;;;;;;;;5049230;28;20068;-75
2021/12/06 00:09:59;;;;;;;14.60;4.00;;;;;;;;;;5051063;28;20071;-75
2021/12/06 00:12:24;;;;;;;18.50;4.43;;;;;;;;;;5052337;28;20037;-75
2021/12/06 00:14:50;;;;;;;11.80;4.27;;;;;;;;;;5052121;28;20095;-75
2021/12/06 00:17:16;;;;;;;20.87;4.67;;;;;;;;;;5051370;28;20035;-74
2021/12/06 00:19:43;;;;;;;29.02;11.85;;;;;;;;;;5049620;28;20040;-75
2021/12/06 00:22:12;;;;;;;32.83;11.60;;;;;;;;;;5059966;28;20396;-74
2021/12/06 00:24:38;;;;;;;24.42;8.05;;;;;;;;;;5049760;28;20107;-75
2021/12/06 00:27:04;;;;;;;20.33;7.23;;;;;;;;;;5051825;28;20580;-75
2021/12/06 00:29:29;;;;;;;25.50;10.43;;;;;;;;;;5052240;28;20098;-74
2021/12/06 00:31:55;;;;;;;17.77;7.70;;;;;;;;;;5051970;28;20468;-75
2021/12/06 00:34:22;;;;;;;19.00;5.93;;;;;;;;;;5053051;28;20108;-75
2021/12/06 00:37:04;;;;;;;14.80;5.45;;;;;;;;;;5052904;28;20475;-74
2021/12/06 00:39:30;;;;;;;12.98;5.13;;;;;;;;;;5051748;28;20056;-75
2021/12/06 00:41:55;;;;;;;17.97;5.90;;;;;;;;;;5053230;28;20037;-72
2021/12/06 00:44:21;;;;;;;13.57;4.40;;;;;;;;;;5053105;28;20032;-72
2021/12/06 00:46:46;;;;;;;18.23;5.67;;;;;;;;;;5052852;28;20041;-73
2021/12/06 00:49:11;;;;;;;18.33;5.70;;;;;;;;;;5051393;28;20045;-72
2021/12/06 00:51:37;;;;;;;15.10;5.93;;;;;;;;;;5052568;28;20040;-73
2021/12/06 00:54:03;;;;;;;16.33;5.27;;;;;;;;;;5052475;28;20040;-73
2021/12/06 00:56:28;;;;;;;16.43;5.43;;;;;;;;;;5052807;28;20045;-73
2021/12/06 00:58:54;;;;;;;23.17;5.43;;;;;;;;;;5051682;28;20132;-73
2021/12/06 01:01:20;;;;;;;20.93;6.47;;;;;;;;;;5052798;28;20075;-72
2021/12/06 01:03:45;;;;;;;12.40;5.83;;;;;;;;;;5051474;28;20090;-72
2021/12/06 01:06:12;;;;;;;18.47;6.43;;;;;;;;;;5052847;28;20029;-73
2021/12/06 01:08:38;;;;;;;15.75;5.45;;;;;;;;;;5051326;28;20068;-72
2021/12/06 01:11:05;;;;;;;12.63;4.80;;;;;;;;;;5051619;28;20492;-72
2021/12/06 01:13:30;;;;;;;;;;;;;;;;;;5046341;28;20392;-73
2021/12/06 01:15:56;;;;;;;14.95;4.45;;;;;;;;;;5052855;28;19920;-73
2021/12/06 01:18:23;;;;;;;13.18;5.55;;;;;;;;;;5051462;28;20041;-73
2021/12/06 01:20:57;;;;;;;10.63;4.18;;;;;;;;;;5052494;28;20087;-73
2021/12/06 01:23:27;;;;;;;16.90;5.55;;;;;;;;;;5052648;28;20033;-73
2021/12/06 01:26:34;;;;;;;14.30;4.80;;;;;;;;;;5052264;28;20040;-72
2021/12/06 01:39:17;;;;;;;13.82;4.93;;;;;;;;;;5044940;28;20498;-73
2021/12/06 01:41:49;;;;;;;19.23;5.85;;;;;;;;;;5054779;28;20049;-73
2021/12/06 01:44:29;;;;;;;12.85;5.10;;;;;;;;;;5054257;28;20103;-73
2021/12/06 01:47:03;;;;;;;18.17;5.47;;;;;;;;;;5055700;28;20037;-73
2021/12/06 01:49:35;;;;;;;25.48;6.18;;;;;;;;;;5055028;28;20393;-73
2021/12/06 01:52:09;;;;;;;12.20;4.90;;;;;;;;;;5053761;28;20047;-72
2021/12/06 01:54:35;;;;;;;16.40;5.43;;;;;;;;;;5054721;28;20040;-73
2021/12/06 01:57:00;;;;;;;12.53;4.37;;;;;;;;;;5055751;28;20045;-72
2021/12/06 01:59:26;;;;;;;14.57;4.83;;;;;;;;;;5055945;28;20041;-72
2021/12/06 02:01:53;;;;;;;13.37;4.23;;;;;;;;;;5054736;28;20029;-73
2021/12/06 02:04:18;;;;;;;;;;;;;;;;;;5056349;28;20032;-72
2021/12/06 02:06:44;;;;;;;13.75;4.45;;;;;;;;;;5055268;28;19920;-73
2021/12/06 02:09:12;;;;;;;14.98;5.03;;;;;;;;;;5055271;28;20485;-72
2021/12/06 02:11:39;;;;;;;17.30;4.28;;;;;;;;;;5055634;28;20431;-73
2021/12/06 02:14:21;;;;;;;17.25;6.47;;;;;;;;;;5055475;28;20086;-72
2021/12/06 02:19:38;;;;;;;12.40;5.75;;;;;;;;;;5054943;28;20055;-73
2021/12/06 02:22:05;;;;;;;12.73;5.22;;;;;;;;;;5054184;28;20025;-73
2021/12/06 02:24:32;;;;;;;15.88;4.57;;;;;;;;;;5053420;28;20124;-72
2021/12/06 02:26:57;;;;;;;;;;;;;;;;;;5054663;28;20033;-73
2021/12/06 02:29:23;;;;;;;13.45;4.57;;;;;;;;;;5053793;28;20446;-73
2021/12/06 02:31:48;;;;;;;11.87;4.57;;;;;;;;;;5055147;28;20051;-73
2021/12/06 02:34:14;;;;;;;12.60;4.80;;;;;;;;;;5055254;28;20082;-73
2021/12/06 02:36:40;;;;;;;10.73;4.77;;;;;;;;;;5055029;28;20045;-73
2021/12/06 02:39:09;;;;;;;11.13;4.37;;;;;;;;;;5054926;28;20025;-73
2021/12/06 02:41:34;;;;;;;19.88;5.20;;;;;;;;;;5053715;28;20479;-73
2021/12/06 02:44:00;;;;;;;12.17;5.00;;;;;;;;;;5055073;28;20037;-73
2021/12/06 02:46:25;;;;;;;11.70;5.10;;;;;;;;;;5054767;28;20404;-73
2021/12/06 02:48:51;;;;;;;15.93;4.53;;;;;;;;;;5053209;28;20053;-73
2021/12/06 02:51:17;;;;;;;13.70;4.60;;;;;;;;;;5054490;28;20029;-72
2021/12/06 02:53:43;;;;;;;16.05;5.10;;;;;;;;;;5053445;28;20116;-72
2021/12/06 02:58:56;;;;;;;18.38;4.63;;;;;;;;;;5054259;28;20028;-72
2021/12/06 03:01:42;;;;;;;17.75;5.13;;;;;;;;;;5054051;28;20488;-72
2021/12/06 03:04:08;;;;;;;17.52;5.93;;;;;;;;;;5048955;28;20020;-72
2021/12/06 03:06:34;;;;;;;16.00;6.00;;;;;;;;;;5053472;28;20037;-73
2021/12/06 03:09:12;;;;;;;18.57;6.00;;;;;;;;;;5054116;28;20059;-73
2021/12/06 03:11:41;;;;;;;14.23;5.65;;;;;;;;;;5054488;28;20403;-73
2021/12/06 03:14:09;;;;;;;19.65;6.28;;;;;;;;;;5054536;28;20134;-73
2021/12/06 03:16:34;;;;;;;12.25;5.43;;;;;;;;;;5047382;28;20033;-73
2021/12/06 03:19:00;;;;;;;16.67;5.27;;;;;;;;;;5046760;28;20124;-73
2021/12/06 03:21:26;;;;;;;15.75;5.90;;;;;;;;;;5054238;28;20067;-73
2021/12/06 03:23:54;;;;;;;20.63;5.70;;;;;;;;;;5054025;28;20040;-73
2021/12/06 03:26:20;;;;;;;14.93;5.68;;;;;;;;;;5050377;28;20090;-75
2021/12/06 03:28:45;;;;;;;11.47;5.00;;;;;;;;;;5053700;28;20045;-74
2021/12/06 03:31:11;;;;;;;13.27;4.50;;;;;;;;;;5053716;28;20469;-75
2021/12/06 03:33:38;;;;;;;11.70;4.93;;;;;;;;;;5053633;28;20040;-75
2021/12/06 03:36:05;;;;;;;18.20;4.28;;;;;;;;;;5053529;28;20060;-74
2021/12/06 03:38:31;;;;;;;;;;;;;;;;;;5051185;28;20056;-75
2021/12/06 03:40:56;;;;;;;7.53;3.92;;;;;;;;;;5085816;28;19917;-72
2021/12/06 03:43:22;;;;;;;15.13;4.27;;;;;;;;;;5054129;28;20048;-73
2021/12/06 03:45:47;;;;;;;9.20;4.83;;;;;;;;;;5052514;28;20044;-73
2021/12/06 03:48:13;;;;;;;14.13;4.67;;;;;;;;;;5052468;28;20489;-73
2021/12/06 03:50:38;;;;;;;8.27;4.17;;;;;;;;;;5053557;28;20041;-72
2021/12/06 03:53:04;;;;;;;13.33;4.63;;;;;;;;;;5053551;28;20032;-73
2021/12/06 03:55:29;;;;;;;9.93;4.50;;;;;;;;;;5053557;28;20056;-73
2021/12/06 03:57:55;;;;;;;17.77;5.13;;;;;;;;;;5051922;28;20094;-73
2021/12/06 04:00:20;;;;;;;10.20;4.07;;;;;;;;;;5052310;28;20036;-74
2021/12/06 04:02:46;;;;;;;15.67;4.07;;;;;;;;;;5051942;28;20032;-74
2021/12/06 04:05:12;;;;;;;16.40;4.13;;;;;;;;;;5053833;28;20033;-74
2021/12/06 04:07:37;;;;;;;12.03;4.80;;;;;;;;;;5051964;28;20419;-75
2021/12/06 04:10:09;;;;;;;20.53;5.40;;;;;;;;;;5052079;28;20551;-75
2021/12/06 04:12:35;;;;;;;25.80;9.68;;;;;;;;;;5052159;28;20037;-75
2021/12/06 04:15:01;;;;;;;25.73;8.82;;;;;;;;;;5052120;28;20028;-73
2021/12/06 04:17:26;;;;;;;25.33;9.47;;;;;;;;;;5052977;28;20481;-72
2021/12/06 04:19:52;;;;;;;17.87;8.23;;;;;;;;;;5053225;28;20072;-73
2021/12/06 04:22:18;;;;;;;22.30;7.87;;;;;;;;;;5051919;28;20469;-72
2021/12/06 04:24:44;;;;;;;22.50;7.33;;;;;;;;;;5051851;28;20052;-72
2021/12/06 04:27:14;;;;;;;18.40;6.20;;;;;;;;;;5052048;28;20048;-73
2021/12/06 04:29:50;;;;;;;16.88;6.53;;;;;;;;;;5052890;28;20037;-73
2021/12/06 04:32:16;;;;;;;19.63;6.00;;;;;;;;;;5067724;28;20037;-75
2021/12/06 04:34:42;;;;;;;20.60;6.43;;;;;;;;;;5051528;28;20465;-74
2021/12/06 04:37:08;;;;;;;13.63;4.57;;;;;;;;;;5053057;28;20060;-74
2021/12/06 04:39:34;;;;;;;14.93;5.73;;;;;;;;;;5052997;28;20087;-75
2021/12/06 04:42:01;;;;;;;19.90;5.20;;;;;;;;;;5053166;28;20380;-75
2021/12/06 04:44:26;;;;;;;14.27;4.78;;;;;;;;;;5052673;28;20166;-74
2021/12/06 04:46:52;;;;;;;14.80;5.23;;;;;;;;;;5051754;28;20120;-75
2021/12/06 04:49:18;;;;;;;14.57;5.70;;;;;;;;;;5052311;28;20056;-73
2021/12/06 04:51:46;;;;;;;16.85;5.45;;;;;;;;;;5051648;28;20037;-73
2021/12/06 04:54:14;;;;;;;11.82;4.93;;;;;;;;;;5051682;28;20041;-73
2021/12/06 04:56:43;;;;;;;13.70;5.32;;;;;;;;;;5051753;28;20033;-72
2021/12/06 04:59:15;;;;;;;11.98;5.10;;;;;;;;;;5051583;28;20031;-73
2021/12/06 05:01:42;;;;;;;12.75;5.45;;;;;;;;;;5052651;28;20041;-75
2021/12/06 05:04:15;;;;;;;12.57;5.50;;;;;;;;;;5051684;28;20033;-75
2021/12/06 05:06:43;;;;;;;16.48;6.35;;;;;;;;;;5051397;28;20068;-74
2021/12/06 05:09:15;;;;;;;17.88;5.57;;;;;;;;;;5052952;28;20098;-75
2021/12/06 05:11:41;;;;;;;16.50;5.80;;;;;;;;;;5055408;28;20052;-75
2021/12/06 05:14:07;;;;;;;14.95;5.53;;;;;;;;;;5056605;28;20029;-73
2021/12/06 05:16:35;;;;;;;15.40;6.17;;;;;;;;;;5056475;28;20043;-73
2021/12/06 05:19:01;;;;;;;10.95;5.10;;;;;;;;;;5056533;28;20048;-73
2021/12/06 05:21:26;;;;;;;10.82;4.15;;;;;;;;;;5056466;28;20484;-72
2021/12/06 05:23:52;;;;;;;9.53;3.97;;;;;;;;;;5045250;28;20062;-73
2021/12/06 05:26:17;;;;;;;12.90;4.43;;;;;;;;;;5055458;28;20044;-73
2021/12/06 05:28:44;;;;;;;14.00;4.77;;;;;;;;;;5055922;28;20053;-73
2021/12/06 05:31:20;;;;;;;14.40;6.10;;;;;;;;;;5055218;28;20052;-73
2021/12/06 05:33:52;;;;;;;11.07;4.43;;;;;;;;;;5055475;28;20419;-72
2021/12/06 05:36:17;;;;;;;11.07;5.03;;;;;;;;;;5043854;28;20033;-73
2021/12/06 05:38:43;;;;;;;14.77;4.83;;;;;;;;;;5054982;28;20044;-73
2021/12/06 05:41:09;;;;;;;10.53;3.63;;;;;;;;;;5055118;28;20021;-73
2021/12/06 05:43:34;;;;;;;8.73;3.40;;;;;;;;;;5054852;28;20040;-73
2021/12/06 05:46:00;;;;;;;10.10;3.57;;;;;;;;;;5056175;28;20371;-73
2021/12/06 05:48:26;;;;;;;6.60;2.80;;;;;;;;;;5054409;28;20071;-73
2021/12/06 05:50:51;;;;;;;7.28;3.10;;;;;;;;;;5053070;28;20043;-72
2021/12/06 05:53:18;;;;;;;7.20;3.03;;;;;;;;;;5054953;28;20421;-73
2021/12/06 05:55:43;;;;;;;12.75;3.08;;;;;;;;;;5054581;28;20120;-73
2021/12/06 05:58:10;;;;;;;9.43;3.67;;;;;;;;;;5055947;28;20064;-73
2021/12/06 06:00:36;;;;;;;10.30;3.95;;;;;;;;;;5055714;28;20045;-73
2021/12/06 06:03:03;;;;;;;11.57;4.73;;;;;;;;;;5055898;28;20083;-72
2021/12/06 06:05:29;;;;;;;10.32;3.90;;;;;;;;;;5054725;28;20112;-72
2021/12/06 06:07:55;;;;;;;9.60;3.45;;;;;;;;;;5054212;28;20488;-73
2021/12/06 06:10:20;;;;;;;10.40;3.33;;;;;;;;;;5055803;28;20048;-72
2021/12/06 06:12:45;;;;;;;8.90;2.93;;;;;;;;;;5055493;28;20087;-72
2021/12/06 06:15:12;;;;;;;8.63;3.13;;;;;;;;;;5055566;28;20083;-73
2021/12/06 06:17:43;;;;;;;10.27;3.15;;;;;;;;;;5054425;28;20033;-73
2021/12/06 06:20:13;;;;;;;9.80;3.33;;;;;;;;;;5054739;28;20456;-73
2021/12/06 06:22:39;;;;;;;7.03;3.30;;;;;;;;;;5055275;28;20045;-73
2021/12/06 06:25:05;;;;;;;10.93;3.27;;;;;;;;;;5055484;28;20095;-72
2021/12/06 06:27:30;;;;;;;12.30;3.13;;;;;;;;;;5055318;28;20484;-72
2021/12/06 06:29:56;;;;;;;8.83;4.40;;;;;;;;;;5055156;28;20041;-72
2021/12/06 06:32:21;;;;;;;10.87;3.57;;;;;;;;;;5054915;28;20035;-73
2021/12/06 06:34:46;;;;;;;6.27;3.07;;;;;;;;;;5055365;28;20118;-72
2021/12/06 06:37:12;;;;;;;9.37;3.23;;;;;;;;;;5055101;28;20029;-73
2021/12/06 06:39:37;;;;;;;4.87;3.50;;;;;;;;;;5053851;28;20107;-73
2021/12/06 06:42:03;;;;;;;8.27;3.83;;;;;;;;;;5055265;28;20094;-73
2021/12/06 06:44:28;;;;;;;11.33;4.63;;;;;;;;;;5055047;28;20044;-73
2021/12/06 06:46:54;;;;;;;9.97;5.20;;;;;;;;;;5054591;28;20028;-73
2021/12/06 06:49:20;;;;;;;15.47;5.43;;;;;;;;;;5054419;28;20124;-73
2021/12/06 06:51:46;;;;;;;17.93;7.73;;;;;;;;;;5053738;28;20124;-73
2021/12/06 06:54:12;;;;;;;16.13;5.78;;;;;;;;;;5053564;28;20032;-73
2021/12/06 06:56:38;;;;;;;11.90;4.60;;;;;;;;;;5053402;28;20452;-73
2021/12/06 06:59:04;;;;;;;12.25;4.00;;;;;;;;;;5054707;28;20063;-73
2021/12/06 07:01:30;;;;;;;12.27;4.63;;;;;;;;;;5054297;28;20457;-75
2021/12/06 07:03:55;;;;;;;12.57;3.87;;;;;;;;;;5070138;28;20029;-75
2021/12/06 07:06:23;;;;;;;23.53;10.33;;;;;;;;;;5054875;28;20082;-74
2021/12/06 07:08:48;;;;;;;15.68;6.68;;;;;;;;;;5053430;28;20033;-75
2021/12/06 07:11:14;;;;;;;14.63;5.10;;;;;;;;;;5053493;28;20063;-75
2021/12/06 07:13:40;;;;;;;13.50;5.00;;;;;;;;;;5054544;28;20041;-73
2021/12/06 07:16:07;;;;;;;13.43;5.10;;;;;;;;;;5054282;28;20017;-73
2021/12/06 07:19:36;;;;;;;10.68;4.68;;;;;;;;;;5053370;28;20155;-73
2021/12/06 07:22:03;;;;;;;10.57;3.65;;;;;;;;;;5053832;28;20500;-72
2021/12/06 07:24:28;;;;;;;9.27;4.40;;;;;;;;;;5054548;28;20040;-73
2021/12/06 07:26:54;;;;;;;10.37;4.47;;;;;;;;;;5054185;28;20041;-72
2021/12/06 07:29:20;;;;;;;8.30;4.65;;;;;;;;;;5052922;28;20067;-73
2021/12/06 07:31:45;;;;;;;11.43;6.03;;;;;;;;;;5052932;28;20044;-73
2021/12/06 07:34:11;;;;;;;15.63;5.43;;;;;;;;;;5053977;28;20060;-72
2021/12/06 07:36:36;;;;;;;9.60;4.67;;;;;;;;;;5053975;28;20496;-72
2021/12/06 07:39:03;;;;;;;14.40;4.97;;;;;;;;;;5053897;28;20393;-73
2021/12/06 07:41:29;;;;;;;13.07;3.50;;;;;;;;;;5052562;28;20029;-73
2021/12/06 07:43:56;;;;;;;15.57;6.50;;;;;;;;;;5052436;28;20386;-73
2021/12/06 07:46:22;;;;;;;7.80;4.15;;;;;;;;;;5053531;28;20500;-72
2021/12/06 07:48:52;;;;;;;10.37;4.70;;;;;;;;;;5053672;28;20056;-73
2021/12/06 07:51:19;;;;;;;7.15;4.78;;;;;;;;;;5053899;28;20045;-73
2021/12/06 07:53:44;;;;;;;9.43;3.75;;;;;;;;;;5053543;28;20044;-73
2021/12/06 07:56:10;;;;;;;9.80;3.50;;;;;;;;;;5053813;28;20036;-73
2021/12/06 07:58:35;;;;;;;7.23;3.20;;;;;;;;;;5052000;28;20045;-73
2021/12/06 08:01:01;;;;;;;4.17;2.77;;;;;;;;;;5053539;28;20067;-75
2021/12/06 08:03:30;;;;;;;8.17;3.10;;;;;;;;;;5053785;28;20051;-75
2021/12/06 08:05:56;;;;;;;7.13;2.40;;;;;;;;;;5052148;28;20057;-75
2021/12/06 08:08:24;;;;;;;10.63;3.77;;;;;;;;;;5053418;28;20080;-74
2021/12/06 08:10:59;;;;;;;14.10;4.22;;;;;;;;;;5051253;28;20056;-75
2021/12/06 08:13:27;;;;;;;8.48;3.95;;;;;;;;;;5048483;28;20040;-74
2021/12/06 08:15:56;;;;;;;6.38;3.10;;;;;;;;;;5050435;28;20523;-74
2021/12/06 08:18:22;;;;;;;6.13;3.30;;;;;;;;;;5052486;28;20113;-75
2021/12/06 08:20:48;;;;;;;10.80;4.05;;;;;;;;;;5050733;28;20497;-74
2021/12/06 08:23:14;;;;;;;8.32;3.83;;;;;;;;;;5051852;28;20051;-75
2021/12/06 08:25:41;;;;;;;11.25;4.60;;;;;;;;;;5051038;28;20063;-74
2021/12/06 08:28:06;;;;;;;7.63;3.75;;;;;;;;;;5050954;28;20037;-74
2021/12/06 08:30:32;;;;;;;9.23;2.97;;;;;;;;;;5051787;28;20047;-74
2021/12/06 08:33:01;;;;;;;14.23;4.70;;;;;;;;;;5050932;28;20057;-74
2021/12/06 08:35:27;;;;;;;9.50;2.47;;;;;;;;;;5051343;28;20033;-74
2021/12/06 08:37:54;;;;;;;6.13;3.30;;;;;;;;;;5052838;28;20072;-74
2021/12/06 08:40:20;;;;;;;7.72;3.03;;;;;;;;;;5052198;28;20037;-74
2021/12/06 08:42:45;;;;;;;12.13;2.93;;;;;;;;;;5052752;28;20055;-74
2021/12/06 08:45:12;;;;;;;8.30;2.73;;;;;;;;;;5051732;28;20037;-74
2021/12/06 08:47:38;;;;;;;6.75;3.25;;;;;;;;;;5051176;28;20554;-74
2021/12/06 08:50:05;;;;;;;8.82;2.83;;;;;;;;;;5050061;28;20038;-74
2021/12/06 08:52:31;;;;;;;10.82;2.67;;;;;;;;;;5052659;28;20041;-74
2021/12/06 08:54:56;;;;;;;8.03;2.20;;;;;;;;;;5052696;28;20048;-74
2021/12/06 08:57:22;;;;;;;7.23;2.10;;;;;;;;;;5051389;28;20051;-73
2021/12/06 08:59:47;;;;;;;6.30;2.10;;;;;;;;;;5051390;28;20037;-72
2021/12/06 09:02:13;;;;;;;9.80;2.40;;;;;;;;;;5040988;28;20088;-73
2021/12/06 09:04:39;;;;;;;5.57;2.35;;;;;;;;;;5033335;28;20038;-73
2021/12/06 09:07:12;;;;;;;12.53;2.37;;;;;;;;;;5023163;28;20037;-73
2021/12/06 09:09:46;;;;;;;6.97;2.15;;;;;;;;;;5025942;28;20087;-73
2021/12/06 09:12:18;;;;;;;4.47;2.38;;;;;;;;;;5032712;28;20037;-73
2021/12/06 09:14:44;;;;;;;7.60;2.45;;;;;;;;;;5032507;28;20457;-73
2021/12/06 09:17:10;;;;;;;7.07;2.30;;;;;;;;;;5032489;28;20121;-73
2021/12/06 09:19:35;;;;;;;6.07;2.17;;;;;;;;;;5032771;28;20044;-73
2021/12/06 09:22:02;;;;;;;7.90;3.10;;;;;;;;;;5032993;28;20036;-73
2021/12/06 09:24:28;;;;;;;5.65;2.55;;;;;;;;;;5031512;28;20034;-73
2021/12/06 09:26:54;;;;;;;8.60;2.75;;;;;;;;;;5031935;28;20059;-73
2021/12/06 09:29:19;;;;;;;5.53;2.07;;;;;;;;;;5031818;28;20033;-73
2021/12/06 09:31:45;;;;;;;7.10;2.70;;;;;;;;;;5032100;28;20503;-73
2021/12/06 09:34:11;;;;;;;8.60;3.20;;;;;;;;;;5031470;28;20045;-74
2021/12/06 09:36:37;;;;;;;5.70;2.80;;;;;;;;;;5032140;28;20022;-73
2021/12/06 09:39:05;;;;;;;7.80;2.30;;;;;;;;;;5022938;28;20053;-73
2021/12/06 09:41:31;;;;;;;9.82;2.35;;;;;;;;;;5031306;28;20393;-73
2021/12/06 09:43:59;;;;;;;8.37;3.10;;;;;;;;;;5030304;28;20119;-74
2021/12/06 09:46:26;;;;;;;7.03;2.50;;;;;;;;;;5022032;28;20049;-73
2021/12/06 09:48:52;;;;;;;8.15;3.00;;;;;;;;;;5024351;28;20103;-73
2021/12/06 09:51:25;;;;;;;10.00;2.70;;;;;;;;;;5026008;28;20033;-74
2021/12/06 09:53:52;;;;;;;7.30;2.58;;;;;;;;;;5025953;28;20034;-73
2021/12/06 09:56:23;;;;;;;11.27;3.67;;;;;;;;;;5028731;28;20084;-73
2021/12/06 09:58:49;;;;;;;6.30;2.20;;;;;;;;;;5029589;28;20079;-73
2021/12/06 10:01:21;;;;;;;6.80;2.70;;;;;;;;;;5031012;28;20488;-73
2021/12/06 10:03:48;;;;;;;5.55;2.70;;;;;;;;;;5029944;28;20040;-73
2021/12/06 10:06:16;;;;;;;12.68;2.90;;;;;;;;;;5031166;28;20037;-73
2021/12/06 10:08:44;;;;;;;8.40;2.63;;;;;;;;;;5031095;28;20045;-73
2021/12/06 10:11:11;;;;;;;9.35;2.70;;;;;;;;;;5032257;28;20053;-73
2021/12/06 10:13:36;;;;;;;9.35;2.80;;;;;;;;;;5032291;28;20030;-73
2021/12/06 10:16:03;;;;;;;10.33;2.77;;;;;;;;;;5030354;28;21269;-73
2021/12/06 10:18:28;;;;;;;5.65;3.13;;;;;;;;;;5031756;28;20025;-73
2021/12/06 10:20:54;;;;;;;13.63;3.23;;;;;;;;;;5030563;28;20389;-73
2021/12/06 10:23:20;;;;;;;6.67;2.13;;;;;;;;;;5031765;28;20036;-73
2021/12/06 10:25:49;;;;;;;8.45;3.13;;;;;;;;;;5031951;28;20507;-74
2021/12/06 10:28:15;;;;;;;9.98;3.15;;;;;;;;;;5030666;28;20044;-73
2021/12/06 10:30:44;;;;;;;11.13;4.28;;;;;;;;;;5030474;28;20037;-73
2021/12/06 10:33:15;;;;;;;8.85;2.97;;;;;;;;;;5031521;28;20033;-73
2021/12/06 10:35:44;;;;;;;9.05;3.75;;;;;;;;;;5031402;28;20049;-73
2021/12/06 10:38:10;;;;;;;8.77;3.15;;;;;;;;;;5029601;28;20424;-73
2021/12/06 10:40:39;;;;;;;8.98;3.25;;;;;;;;;;5030903;28;20045;-72
2021/12/06 10:43:08;;;;;;;5.40;3.55;;;;;;;;;;5029928;28;20152;-73
2021/12/06 10:45:44;;;;;;;10.20;3.65;;;;;;;;;;5029808;28;20029;-73
2021/12/06 10:48:15;;;;;;;11.52;4.40;;;;;;;;;;5027876;28;20440;-73
2021/12/06 10:50:45;;;;;;;7.43;3.65;;;;;;;;;;5030622;28;20041;-73
2021/12/06 10:53:12;;;;;;;9.80;4.80;;;;;;;;;;5029499;28;20086;-73
2021/12/06 10:55:39;;;;;;;5.57;2.72;;;;;;;;;;5030851;28;20029;-73
2021/12/06 10:58:07;;;;;;;5.70;2.92;;;;;;;;;;5030446;28;20037;-73
2021/12/06 11:00:41;;;;;;;6.78;3.22;;;;;;;;;;5030673;28;20556;-73
2021/12/06 11:03:22;;;;;;;8.73;3.35;;;;;;;;;;5029433;28;20030;-74
2021/12/06 11:06:04;;;;;;;7.18;2.88;;;;;;;;;;5027931;28;20076;-73
2021/12/06 11:08:32;;;;;;;5.75;3.28;;;;;;;;;;5029973;28;20527;-73
2021/12/06 11:11:03;;;;;;;9.95;3.45;;;;;;;;;;5030226;28;20037;-73
2021/12/06 11:13:33;;;;;;;6.72;4.65;;;;;;;;;;5029435;28;20532;-73
2021/12/06 11:16:07;;;;;;;9.48;3.13;;;;;;;;;;5030548;28;20063;-73
2021/12/06 11:18:37;;;;;;;6.30;3.42;;;;;;;;;;5035218;28;21017;-73
2021/12/06 11:21:05;;;;;;;13.93;4.60;;;;;;;;;;5029685;28;20045;-73
2021/12/06 11:23:30;;;;;;;8.07;4.88;;;;;;;;;;5030043;28;20068;-73
2021/12/06 11:26:02;;;;;;;8.97;4.27;;;;;;;;;;5028783;28;20041;-73
2021/12/06 11:28:32;;;;;;;12.82;4.60;;;;;;;;;;5030404;28;20045;-74
2021/12/06 11:31:05;;;;;;;10.00;3.50;;;;;;;;;;5028277;28;20041;-74
2021/12/06 11:33:33;;;;;;;10.00;2.90;;;;;;;;;;5029036;28;20038;-73
2021/12/06 11:36:01;;;;;;;8.52;3.72;;;;;;;;;;5028689;28;20417;-73
2021/12/06 11:38:30;;;;;;;5.70;2.58;;;;;;;;;;5028507;28;20366;-73
2021/12/06 11:40:57;;;;;;;10.60;4.30;;;;;;;;;;5028738;28;20041;-74
2021/12/06 11:43:23;;;;;;;8.20;2.55;;;;;;;;;;5027752;28;20030;-73
2021/12/06 11:45:52;;;;;;;8.83;2.60;;;;;;;;;;5029017;28;20114;-74
2021/12/06 11:48:17;;;;;;;6.70;2.53;;;;;;;;;;5028312;28;20061;-73
2021/12/06 11:51:01;;;;;;;6.30;2.60;;;;;;;;;;5029779;28;20431;-74
2021/12/06 11:53:38;;;;;;;8.57;2.72;;;;;;;;;;5028259;28;20092;-73
2021/12/06 11:56:10;;;;;;;5.50;2.60;;;;;;;;;;5029431;28;20117;-74
2021/12/06 11:58:38;;;;;;;8.27;3.15;;;;;;;;;;5027939;28;20481;-74
2021/12/06 12:01:17;;;;;;;8.70;2.42;;;;;;;;;;5028637;28;20033;-74
2021/12/06 12:03:45;;;;;;;9.55;3.00;;;;;;;;;;5029008;28;20052;-73
2021/12/06 12:06:41;;;;;;;10.65;3.30;;;;;;;;;;5029409;28;20033;-74
2021/12/06 12:09:09;;;;;;;14.30;3.78;;;;;;;;;;5024623;28;20084;-73
2021/12/06 12:12:08;;;;;;;8.18;3.22;;;;;;;;;;5029789;28;20504;-73
2021/12/06 12:14:38;;;;;;;12.88;5.72;;;;;;;;;;5021693;28;20042;-73
2021/12/06 12:17:10;;;;;;;19.33;3.78;;;;;;;;;;5029333;28;20429;-73
2021/12/06 12:19:37;;;;;;;13.55;3.80;;;;;;;;;;5027181;28;20045;-73
2021/12/06 12:22:03;;;;;;;10.68;3.15;;;;;;;;;;5027989;28;20031;-74
2021/12/06 12:24:29;;;;;;;6.80;2.50;;;;;;;;;;5028420;28;20045;-74
2021/12/06 12:27:08;;;;;;;6.35;2.50;;;;;;;;;;5027828;28;20048;-74
2021/12/06 12:29:33;;;;;;;7.80;2.22;;;;;;;;;;5028173;28;20059;-73
2021/12/06 12:32:04;;;;;;;5.73;1.87;;;;;;;;;;5028472;28;20049;-74
2021/12/06 12:34:33;;;;;;;7.65;2.45;;;;;;;;;;5026961;28;20036;-74
2021/12/06 12:36:59;;;;;;;9.77;2.45;;;;;;;;;;5026196;28;20072;-73
2021/12/06 12:39:25;;;;;;;8.60;2.73;;;;;;;;;;5027365;28;20065;-74
2021/12/06 12:41:54;;;;;;;7.57;2.30;;;;;;;;;;5029077;28;20069;-74
2021/12/06 12:44:21;;;;;;;6.70;1.92;;;;;;;;;;5027618;28;20076;-73
2021/12/06 12:46:46;;;;;;;13.15;2.45;;;;;;;;;;5020447;28;20905;-73
2021/12/06 12:49:22;;;;;;;10.13;2.27;;;;;;;;;;5024953;28;20045;-73
2021/12/06 12:51:51;;;;;;;9.23;1.88;;;;;;;;;;5025159;28;20161;-74
2021/12/06 12:54:28;;;;;;;9.23;2.25;;;;;;;;;;5026193;28;20112;-74
2021/12/06 12:57:06;;;;;;;4.90;1.77;;;;;;;;;;5027281;28;20056;-74
2021/12/06 12:59:52;;;;;;;6.43;2.33;;;;;;;;;;5031353;28;20030;-73
2021/12/06 13:02:24;;;;;;;7.85;1.70;;;;;;;;;;5031376;28;20568;-73
2021/12/06 13:04:59;;;;;;;8.13;1.80;;;;;;;;;;5026012;28;20037;-74
2021/12/06 13:07:31;;;;;;;13.52;3.17;;;;;;;;;;5031099;28;20096;-73
2021/12/06 13:10:19;;;;;;;12.18;2.95;;;;;;;;;;5022812;28;20069;-73
2021/12/06 13:13:30;;;;;;;6.55;2.03;;;;;;;;;;5031621;28;20401;-73
2021/12/06 13:16:11;;;;;;;10.55;1.98;;;;;;;;;;4975222;28;20121;-73
2021/12/06 13:21:57;;;;;;;8.65;1.48;;;;;;;;;;5031467;28;20038;-73
2021/12/06 13:24:46;;;;;;;10.35;1.73;;;;;;;;;;5026148;28;20072;-74
2021/12/06 13:27:17;;;;;;;9.27;1.88;;;;;;;;;;5024035;28;20060;-73
2021/12/06 13:29:43;;;;;;;8.48;1.33;;;;;;;;;;5032621;28;20041;-73
2021/12/06 13:32:45;;;;;;;9.80;1.23;;;;;;;;;;5035237;28;20033;-74
2021/12/06 13:35:24;;;;;;;5.13;1.08;;;;;;;;;;5033896;28;20077;-73
2021/12/06 13:38:32;;;;;;;7.15;1.75;;;;;;;;;;5034886;28;20060;-73
2021/12/06 13:40:57;;;;;;;11.32;1.20;;;;;;;;;;4993108;28;20397;-73
2021/12/06 13:43:30;;;;;;;5.43;2.00;;;;;;;;;;5033669;28;20030;-73
2021/12/06 13:45:59;;;;;;;5.95;2.10;;;;;;;;;;5028954;28;20095;-73
2021/12/06 13:48:45;;;;;;;5.22;1.20;;;;;;;;;;5031498;28;20103;-73
2021/12/06 13:51:42;;;;;;;3.42;1.20;;;;;;;;;;5038422;28;20458;-73
2021/12/06 13:54:11;;;;;;;7.20;1.50;;;;;;;;;;5032459;28;20088;-73
2021/12/06 13:56:47;;;;;;;9.65;3.70;;;;;;;;;;5032089;28;20446;-73
2021/12/06 13:59:15;;;;;;;3.83;1.30;;;;;;;;;;5030981;28;20112;-73
2021/12/06 14:01:46;;;;;;;6.00;1.52;;;;;;;;;;5029937;28;20042;-73
2021/12/06 14:04:17;;;;;;;6.75;1.00;;;;;;;;;;5030612;28;20034;-73
2021/12/06 14:06:49;;;;;;;4.60;1.15;;;;;;;;;;5030537;28;20412;-73
2021/12/06 14:09:15;;;;;;;11.50;1.40;;;;;;;;;;5030827;28;20068;-73
2021/12/06 14:11:41;;;;;;;7.28;1.33;;;;;;;;;;5030918;28;20041;-73
2021/12/06 14:14:10;;;;;;;4.23;1.30;;;;;;;;;;5032133;28;20048;-73
2021/12/06 14:16:38;;;;;;;9.63;1.60;;;;;;;;;;5029935;28;20397;-73
2021/12/06 14:19:03;;;;;;;8.18;1.70;;;;;;;;;;5032202;28;20096;-73
2021/12/06 14:21:34;;;;;;;6.67;1.20;;;;;;;;;;5027383;28;20041;-73
2021/12/06 14:23:59;;;;;;;5.88;1.17;;;;;;;;;;5031927;28;20104;-73
2021/12/06 14:26:25;;;;;;;7.27;1.00;;;;;;;;;;5031896;28;20112;-73
2021/12/06 14:28:50;;;;;;;8.70;1.53;;;;;;;;;;5031846;28;20120;-73
2021/12/06 14:31:16;;;;;;;5.30;1.20;;;;;;;;;;5032214;28;20030;-73
2021/12/06 14:33:41;;;;;;;6.90;1.50;;;;;;;;;;5032052;28;20436;-74
2021/12/06 14:36:07;;;;;;;3.93;1.20;;;;;;;;;;5032555;28;20041;-73
2021/12/06 14:38:35;;;;;;;11.10;1.55;;;;;;;;;;5031574;28;20847;-73
2021/12/06 14:41:04;;;;;;;5.80;1.20;;;;;;;;;;5031495;28;20044;-73
2021/12/06 14:43:29;;;;;;;4.55;0.98;;;;;;;;;;5030653;28;20076;-73
2021/12/06 14:46:00;;;;;;;7.03;1.00;;;;;;;;;;5030717;28;20056;-73
2021/12/06 14:48:26;;;;;;;4.78;0.85;;;;;;;;;;5030957;28;20139;-73
2021/12/06 14:53:22;;;;;;;5.20;0.77;;;;;;;;;;5029321;28;20041;-73
2021/12/06 14:58:35;;;;;;;9.38;0.75;;;;;;;;;;5029057;28;20058;-73
2021/12/06 15:01:03;;;;;;;5.68;1.05;;;;;;;;;;5028862;28;20543;-73
2021/12/06 15:03:38;;;;;;;3.45;0.82;;;;;;;;;;5030831;28;20068;-74
2021/12/06 15:06:04;;;;;;;8.60;1.00;;;;;;;;;;5027737;28;20041;-73
2021/12/06 15:30:51;;;;;;;8.00;0.98;;;;;;;;;;5034358;27;1395326;-76